Pilot No. 4 — WDA5463 — position and weather

sailwx.info

Track history (hours):
 
Tides and Currents Weather Stations Pressure Air Temp Water Temp Dewpoint Dewpoint Depression Visibility Wind Speed Wind Dir Waves Ship Positions

Pilot No. 4

Owner: P E P Inc, FORT LAUDERDALE, FL. More information available from US FCC via Universal Licensing System and Coast Guard Vessel Documentation Center.

Last reported at 2015-May-26 07:09 UTC. Time now 2015-May-26 07:46 UTC.
Position N 26°06' W 080°07'.

MMSI: 495270931.

Date/timePositionNaut miles runAvg speedWind from/ knotsBaromVisibWave heightAir tempDewpointWater temp
2015-May-26 07:09N 26°06' W 080°07'0 0.1
2015-May-26 02:34N 26°06' W 080°07'0 0.1
2015-May-26 01:33N 26°06' W 080°07'0 0.3
2015-May-26 00:33N 26°06' W 080°07'0 0.2
2015-May-25 23:33N 26°05' W 080°07'1 0.1
2015-May-25 18:33N 26°06' W 080°07'1 0.8
2015-May-25 17:33N 26°05' W 080°07'1 0.3
2015-May-25 14:10N 26°06' W 080°07'1 1.4
2015-May-25 13:33N 26°06' W 080°07'1 0.7
2015-May-25 12:33N 26°06' W 080°07'2 1.7
2015-May-25 11:34N 26°06' W 080°05'2 0.8
2015-May-25 09:33N 26°06' W 080°07'0 0.0
2015-May-25 02:32N 26°06' W 080°07'1 1.0
2015-May-25 01:33N 26°06' W 080°06'0 0.1
2015-May-25 00:33N 26°06' W 080°07'1 0.5
2015-May-24 23:33N 26°05' W 080°07'1 0.6
2015-May-24 22:33N 26°06' W 080°07'1 0.7
2015-May-24 21:33N 26°05' W 080°07'1 0.6
2015-May-24 20:33N 26°06' W 080°07'0 0.1
2015-May-24 18:34N 26°06' W 080°06'3 2.6
2015-May-24 17:33N 26°07' W 080°04'3 3.1
2015-May-24 16:33N 26°06' W 080°07'0 0.1
2015-May-24 15:33N 26°05' W 080°07'2 0.5
2015-May-24 12:33N 26°06' W 080°05'1 0.9
2015-May-24 11:33N 26°06' W 080°06'1 1.1
2015-May-24 10:31N 26°06' W 080°07'1 0.9
2015-May-24 09:33N 26°05' W 080°07'0 0.2
2015-May-24 08:33N 26°05' W 080°07'2 2.0
2015-May-24 07:33N 26°06' W 080°05'2 1.7
2015-May-24 06:11N 26°06' W 080°07'1 1.4
2015-May-24 05:33N 26°05' W 080°07'1 0.8
2015-May-24 04:34N 26°06' W 080°06'1 0.8
2015-May-24 03:13N 26°06' W 080°07'2 2.7
2015-May-24 02:28N 26°05' W 080°05'2 2.0
2015-May-24 01:33N 26°06' W 080°07'0 0.1
2015-May-24 00:33N 26°06' W 080°07'1 0.6
2015-May-23 23:33N 26°05' W 080°07'0 0.3
2015-May-23 22:33N 26°06' W 080°07'0 0.2
2015-May-23 21:33N 26°06' W 080°07'0 0.1
2015-May-23 20:33N 26°06' W 080°07'1 0.2
2015-May-23 17:16N 26°06' W 080°07'1 1.1
2015-May-23 16:33N 26°06' W 080°07'1 0.4
2015-May-23 14:25N 26°06' W 080°07'1 0.7
2015-May-23 13:33N 26°06' W 080°07'0 0.4
2015-May-23 12:33N 26°05' W 080°07'5 4.8
2015-May-23 11:33N 26°06' W 080°02'5 2.5
2015-May-23 09:33N 26°06' W 080°07'1 0.9
2015-May-23 08:33N 26°05' W 080°07'0 0.2
2015-May-23 07:33N 26°05' W 080°07'1 0.7
2015-May-23 06:23N 26°06' W 080°07'1 1.3
2015-May-23 05:33N 26°05' W 080°07'0 0.4
2015-May-23 04:34N 26°06' W 080°07'1 0.5
2015-May-23 03:22N 26°06' W 080°07'1 1.4
2015-May-23 02:33N 26°05' W 080°07'2 2.4
2015-May-23 01:33N 26°06' W 080°04'1 0.6
2015-May-23 00:33N 26°05' W 080°05'2 1.0
2015-May-22 22:34N 26°06' W 080°07'4 4.1
2015-May-22 21:34N 26°07' W 080°03'3 3.2
2015-May-22 20:33N 26°06' W 080°06'1 1.2
2015-May-22 19:33N 26°06' W 080°07'1 0.6
2015-May-22 18:23N 26°06' W 080°07'1 1.0
2015-May-22 17:33N 26°05' W 080°07'2 2.1
2015-May-22 16:33N 26°06' W 080°05'2 2.0
2015-May-22 15:33N 26°05' W 080°07'3 3.1
2015-May-22 14:33N 26°05' W 080°03'2 1.9
2015-May-22 13:33N 26°05' W 080°06'0 0.3
2015-May-22 12:33N 26°06' W 080°05'1 1.0
2015-May-22 11:33N 26°06' W 080°07'1 0.1
2015-May-22 02:33N 26°06' W 080°07'0 0.1
2015-May-22 01:33N 26°06' W 080°07'0 0.1
2015-May-21 22:15N 26°06' W 080°07'1 1.2
2015-May-21 21:33N 26°05' W 080°07'0 0.2
2015-May-21 20:33N 26°05' W 080°07'1 1.0
2015-May-21 19:32N 26°06' W 080°07'0 0.0
2015-May-21 12:33N 26°06' W 080°07'0 0.0
2015-May-21 08:33N 26°06' W 080°07'0 0.0
2015-May-21 06:33N 26°06' W 080°07'2 2.4
2015-May-21 05:33N 26°05' W 080°05'2 2.0
2015-May-21 04:33N 26°05' W 080°07'0 0.2
2015-May-21 03:34N 26°05' W 080°07'0 0.1
2015-May-21 00:33N 26°05' W 080°07'0 0.5
2015-May-20 23:34N 26°06' W 080°06'0 0.5
2015-May-20 22:33N 26°05' W 080°07'0 0.5
2015-May-20 21:33N 26°06' W 080°07'0 0.2
2015-May-20 19:25N 26°06' W 080°07'1 0.8
2015-May-20 18:34N 26°05' W 080°07'2 2.0
2015-May-20 17:34N 26°05' W 080°05'2 2.0
2015-May-20 16:33N 26°06' W 080°07'2 2.0
2015-May-20 15:33N 26°06' W 080°05'2 2.1
2015-May-20 14:33N 26°06' W 080°07'1 1.0
2015-May-20 13:33N 26°06' W 080°06'1 0.9
2015-May-20 12:33N 26°06' W 080°05'0 0.1
2015-May-20 11:34N 26°06' W 080°05'2 0.0
2015-May-18 18:33N 26°06' W 080°07'1 0.5
2015-May-18 17:33N 26°05' W 080°07'3 0.8
2015-May-18 14:33N 26°06' W 080°04'1 1.1
2015-May-18 13:33N 26°06' W 080°05'2 1.8
2015-May-18 12:33N 26°06' W 080°07'3 2.6
2015-May-18 11:33N 26°06' W 080°04'  
Track history (hours):
 
Tides and Currents Weather Stations Pressure Air Temp Water Temp Dewpoint Dewpoint Depression Visibility Wind Speed Wind Dir Waves Ship Positions

Pilot No. 4

Owner: P E P Inc, FORT LAUDERDALE, FL. More information available from US FCC via Universal Licensing System and Coast Guard Vessel Documentation Center.

Last reported at 2015-May-26 07:09 UTC. Time now 2015-May-26 07:46 UTC.
Position N 26°06' W 080°07'.

MMSI: 495270931.

Date/timePositionNaut miles runAvg speedWind from/ knotsBaromVisibWave heightAir tempDewpointWater temp
2015-May-26 07:09N 26°06' W 080°07'0 0.1
2015-May-26 02:34N 26°06' W 080°07'0 0.1
2015-May-26 01:33N 26°06' W 080°07'0 0.3
2015-May-26 00:33N 26°06' W 080°07'0 0.2
2015-May-25 23:33N 26°05' W 080°07'1 0.1
2015-May-25 18:33N 26°06' W 080°07'1 0.8
2015-May-25 17:33N 26°05' W 080°07'1 0.3
2015-May-25 14:10N 26°06' W 080°07'1 1.4
2015-May-25 13:33N 26°06' W 080°07'1 0.7
2015-May-25 12:33N 26°06' W 080°07'2 1.7
2015-May-25 11:34N 26°06' W 080°05'2 0.8
2015-May-25 09:33N 26°06' W 080°07'0 0.0
2015-May-25 02:32N 26°06' W 080°07'1 1.0
2015-May-25 01:33N 26°06' W 080°06'0 0.1
2015-May-25 00:33N 26°06' W 080°07'1 0.5
2015-May-24 23:33N 26°05' W 080°07'1 0.6
2015-May-24 22:33N 26°06' W 080°07'1 0.7
2015-May-24 21:33N 26°05' W 080°07'1 0.6
2015-May-24 20:33N 26°06' W 080°07'0 0.1
2015-May-24 18:34N 26°06' W 080°06'3 2.6
2015-May-24 17:33N 26°07' W 080°04'3 3.1
2015-May-24 16:33N 26°06' W 080°07'0 0.1
2015-May-24 15:33N 26°05' W 080°07'2 0.5
2015-May-24 12:33N 26°06' W 080°05'1 0.9
2015-May-24 11:33N 26°06' W 080°06'1 1.1
2015-May-24 10:31N 26°06' W 080°07'1 0.9
2015-May-24 09:33N 26°05' W 080°07'0 0.2
2015-May-24 08:33N 26°05' W 080°07'2 2.0
2015-May-24 07:33N 26°06' W 080°05'2 1.7
2015-May-24 06:11N 26°06' W 080°07'1 1.4
2015-May-24 05:33N 26°05' W 080°07'1 0.8
2015-May-24 04:34N 26°06' W 080°06'1 0.8
2015-May-24 03:13N 26°06' W 080°07'2 2.7
2015-May-24 02:28N 26°05' W 080°05'2 2.0
2015-May-24 01:33N 26°06' W 080°07'0 0.1
2015-May-24 00:33N 26°06' W 080°07'1 0.6
2015-May-23 23:33N 26°05' W 080°07'0 0.3
2015-May-23 22:33N 26°06' W 080°07'0 0.2
2015-May-23 21:33N 26°06' W 080°07'0 0.1
2015-May-23 20:33N 26°06' W 080°07'1 0.2
2015-May-23 17:16N 26°06' W 080°07'1 1.1
2015-May-23 16:33N 26°06' W 080°07'1 0.4
2015-May-23 14:25N 26°06' W 080°07'1 0.7
2015-May-23 13:33N 26°06' W 080°07'0 0.4
2015-May-23 12:33N 26°05' W 080°07'5 4.8
2015-May-23 11:33N 26°06' W 080°02'5 2.5
2015-May-23 09:33N 26°06' W 080°07'1 0.9
2015-May-23 08:33N 26°05' W 080°07'0 0.2
2015-May-23 07:33N 26°05' W 080°07'1 0.7
2015-May-23 06:23N 26°06' W 080°07'1 1.3
2015-May-23 05:33N 26°05' W 080°07'0 0.4
2015-May-23 04:34N 26°06' W 080°07'1 0.5
2015-May-23 03:22N 26°06' W 080°07'1 1.4
2015-May-23 02:33N 26°05' W 080°07'2 2.4
2015-May-23 01:33N 26°06' W 080°04'1 0.6
2015-May-23 00:33N 26°05' W 080°05'2 1.0
2015-May-22 22:34N 26°06' W 080°07'4 4.1
2015-May-22 21:34N 26°07' W 080°03'3 3.2
2015-May-22 20:33N 26°06' W 080°06'1 1.2
2015-May-22 19:33N 26°06' W 080°07'1 0.6
2015-May-22 18:23N 26°06' W 080°07'1 1.0
2015-May-22 17:33N 26°05' W 080°07'2 2.1
2015-May-22 16:33N 26°06' W 080°05'2 2.0
2015-May-22 15:33N 26°05' W 080°07'3 3.1
2015-May-22 14:33N 26°05' W 080°03'2 1.9
2015-May-22 13:33N 26°05' W 080°06'0 0.3
2015-May-22 12:33N 26°06' W 080°05'1 1.0
2015-May-22 11:33N 26°06' W 080°07'1 0.1
2015-May-22 02:33N 26°06' W 080°07'0 0.1
2015-May-22 01:33N 26°06' W 080°07'0 0.1
2015-May-21 22:15N 26°06' W 080°07'1 1.2
2015-May-21 21:33N 26°05' W 080°07'0 0.2
2015-May-21 20:33N 26°05' W 080°07'1 1.0
2015-May-21 19:32N 26°06' W 080°07'0 0.0
2015-May-21 12:33N 26°06' W 080°07'0 0.0
2015-May-21 08:33N 26°06' W 080°07'0 0.0
2015-May-21 06:33N 26°06' W 080°07'2 2.4
2015-May-21 05:33N 26°05' W 080°05'2 2.0
2015-May-21 04:33N 26°05' W 080°07'0 0.2
2015-May-21 03:34N 26°05' W 080°07'0 0.1
2015-May-21 00:33N 26°05' W 080°07'0 0.5
2015-May-20 23:34N 26°06' W 080°06'0 0.5
2015-May-20 22:33N 26°05' W 080°07'0 0.5
2015-May-20 21:33N 26°06' W 080°07'0 0.2
2015-May-20 19:25N 26°06' W 080°07'1 0.8
2015-May-20 18:34N 26°05' W 080°07'2 2.0
2015-May-20 17:34N 26°05' W 080°05'2 2.0
2015-May-20 16:33N 26°06' W 080°07'2 2.0
2015-May-20 15:33N 26°06' W 080°05'2 2.1
2015-May-20 14:33N 26°06' W 080°07'1 1.0
2015-May-20 13:33N 26°06' W 080°06'1 0.9
2015-May-20 12:33N 26°06' W 080°05'0 0.1
2015-May-20 11:34N 26°06' W 080°05'2 0.0
2015-May-18 18:33N 26°06' W 080°07'1 0.5
2015-May-18 17:33N 26°05' W 080°07'3 0.8
2015-May-18 14:33N 26°06' W 080°04'1 1.1
2015-May-18 13:33N 26°06' W 080°05'2 1.8
2015-May-18 12:33N 26°06' W 080°07'3 2.6
2015-May-18 11:33N 26°06' W 080°04'  

Dump ship's entire track history